CMB828 Details

Departure: Daniel K Inouye International Airport (PHNL)
Arrival: Wake Island Airfield (PWAK) at N/A
Route: KEOLA2 PUPPI 2200N/17000W 2200N/18000E 2100N/17000E AWK
Notes: USTRANSCOM CONTRACT FLIGHT | LIMITED FUEL AVBL TO NON-DOD ACFT


Current Weather Information
PHNL 251153Z 07012KT 10SM FEW024 FEW038 SCT050 28/21 A2998 RMK AO2 SLP152 60000 T02780206 10289 20278 58010
PWAK 251058Z AUTO 07011KT 9999 M 29/25 A2994 RMK AO2 SLP145 T02900245 $